»·PEaware :: N217SQ KCRQ-KLGB

N217SQ :: KCRQ-KLGB

FLIGHT INFORMATION

Flight Status: Arrived
Operator: Privately registered:
United States
More flights under this callsign
Pilot: Luis B. (14232)
Aircraft: CESSNA 172 SKYHAWK
(C172)
More flights by this aircraft type
Origin: KCRQ McClellan-Palomar
United States
Destination: KLGB Long Beach
United States
More flights between these airports :: More routes between these airports
Route: +OCN V23 SLI
File this flight plan on PilotEdge
Remarks: TEC route SANP3
Altitude:
(Current/Filed)
6,000ft
Speed:
(Current/Filed)
110kts
Departed: 22-Mar-20 05:01 PM
Arrived: 22-Mar-20 05:39 PM
Distance/Time
Traveled:
60nm/0:38
Distance/Time
To Go:
Arrived

Flight Plot

Page will automatically refresh every two minutes.


Map Options




Map Legend


Flown Route
Filed Route
Departure Airport
Arrival Airport
Navaid (VOR, NDB)
Fix

Horizontal Profiles

Position Reports

Time Latitude Longitude Heading Altitude Ground
Speed
22-Mar-20 16:41 33.127321 -117.276849 48 335ft 0kts
22-Mar-20 16:42 33.127321 -117.276849 48 335ft 0kts
22-Mar-20 16:43 33.127321 -117.276849 48 335ft 0kts
22-Mar-20 16:44 33.127321 -117.276849 48 335ft 0kts
22-Mar-20 16:45 33.127321 -117.276848 48 335ft 0kts
22-Mar-20 16:46 33.127629 -117.276768 16 335ft 0kts
22-Mar-20 16:47 33.127639 -117.276764 16 335ft 0kts
22-Mar-20 16:48 33.127639 -117.276764 16 335ft 0kts
22-Mar-20 16:49 33.128126 -117.275719 76 335ft 11kts
22-Mar-20 16:50 33.128500 -117.272526 149 335ft 1kts
22-Mar-20 16:51 33.128445 -117.272333 343 335ft 0kts
22-Mar-20 16:52 33.128445 -117.272333 344 335ft 0kts
22-Mar-20 16:53 33.128445 -117.272333 344 335ft 0kts
22-Mar-20 16:54 33.128455 -117.272334 0 335ft 0kts
22-Mar-20 16:55 33.129423 -117.272508 288 335ft 6kts
22-Mar-20 16:56 33.128956 -117.278689 276 335ft 0kts
22-Mar-20 16:57 33.128956 -117.278689 276 335ft 0kts
22-Mar-20 16:58 33.128956 -117.278689 276 335ft 0kts
22-Mar-20 16:59 33.129480 -117.272469 258 335ft 0kts
22-Mar-20 17:00 33.125055 -117.294431 250 850ft 93kts
22-Mar-20 17:01 33.118870 -117.325659 252 1660ft 98kts
22-Mar-20 17:02 33.114742 -117.357546 259 2387ft 98kts
22-Mar-20 17:03 33.109148 -117.389284 272 3002ft 102kts
22-Mar-20 17:04 33.125843 -117.416839 337 3578ft 114kts
22-Mar-20 17:05 33.157651 -117.420219 351 4172ft 115kts
22-Mar-20 17:06 33.189623 -117.425421 347 4730ft 116kts
22-Mar-20 17:07 33.221883 -117.436031 340 5042ft 125kts
22-Mar-20 17:08 33.256058 -117.450406 336 5006ft 135kts
22-Mar-20 17:09 33.289634 -117.471385 312 4903ft 135kts
22-Mar-20 17:10 33.311106 -117.505212 307 5189ft 122kts
22-Mar-20 17:11 33.332464 -117.535670 303 5729ft 121kts
22-Mar-20 17:12 33.355195 -117.566510 304 6057ft 128kts
22-Mar-20 17:13 33.376808 -117.598101 313 5970ft 115kts
22-Mar-20 17:14 33.400566 -117.624154 312 5283ft 113kts
22-Mar-20 17:15 33.422124 -117.652966 306 4852ft 120kts
22-Mar-20 17:16 33.450135 -117.674133 333 4499ft 120kts
22-Mar-20 17:17 33.480106 -117.691525 328 4161ft 118kts
22-Mar-20 17:18 33.508855 -117.710656 327 3845ft 117kts
22-Mar-20 17:19 33.537178 -117.729519 332 3945ft 118kts
22-Mar-20 17:20 33.567923 -117.751745 319 4032ft 133kts
22-Mar-20 17:21 33.599454 -117.775887 328 3997ft 136kts
22-Mar-20 17:22 33.631843 -117.799421 329 3958ft 136kts
22-Mar-20 17:23 33.665186 -117.820637 330 3955ft 134kts
22-Mar-20 17:24 33.697525 -117.843007 329 4016ft 134kts
22-Mar-20 17:25 33.730659 -117.864955 327 4009ft 135kts
22-Mar-20 17:26 33.763531 -117.888298 316 3881ft 137kts
22-Mar-20 17:27 33.748526 -117.914800 191 3985ft 119kts
22-Mar-20 17:28 33.715694 -117.923955 193 3992ft 123kts
22-Mar-20 17:29 33.686166 -117.943408 245 3814ft 131kts
22-Mar-20 17:30 33.689471 -117.984653 289 4072ft 130kts
22-Mar-20 17:31 33.707203 -118.015136 313 3240ft 103kts
22-Mar-20 17:32 33.727415 -118.039217 310 2547ft 104kts
22-Mar-20 17:33 33.745596 -118.064613 313 1986ft 96kts
22-Mar-20 17:34 33.765694 -118.085271 318 1437ft 95kts
22-Mar-20 17:35 33.782071 -118.108128 308 918ft 90kts
22-Mar-20 17:36 33.797754 -118.127498 313 563ft 71kts
22-Mar-20 17:37 33.812699 -118.145233 313 55ft 69kts
22-Mar-20 17:38 33.818587 -118.153048 260 47ft 2kts
22-Mar-20 17:39 33.818516 -118.153759 271 47ft 4kts
22-Mar-20 17:40 33.818408 -118.155999 227 47ft 7kts
22-Mar-20 17:41 33.816641 -118.157365 223 47ft 5kts
22-Mar-20 17:42 33.816234 -118.157967 158 47ft 0kts

Navigation Log

Ident Type
Flight plan parsing failed, navigation log unavailable